createdAt,value
2022-09-16T00:01:13.440Z,20.4
2022-09-16T00:06:50.090Z,20.5
2022-09-16T00:12:25.195Z,20.5
2022-09-16T00:18:00.365Z,20.5
2022-09-16T00:23:35.422Z,20.5
2022-09-16T00:29:11.286Z,20.5
2022-09-16T00:34:46.225Z,20.5
2022-09-16T00:40:21.651Z,20.5
2022-09-16T00:45:58.260Z,20.5
2022-09-16T00:51:33.093Z,20.5
2022-09-16T00:57:08.023Z,20.5
2022-09-16T01:02:42.880Z,20.5
2022-09-16T01:08:18.967Z,20.4
2022-09-16T01:13:55.166Z,20.4
2022-09-16T01:19:30.477Z,20.4
2022-09-16T01:25:06.596Z,20.3
2022-09-16T01:30:41.558Z,20.3
2022-09-16T01:36:17.415Z,20.3
2022-09-16T01:41:52.143Z,20.2
2022-09-16T01:47:28.176Z,20.2
2022-09-16T01:53:03.854Z,20.1
2022-09-16T01:58:38.703Z,20.1
2022-09-16T02:04:14.661Z,20.1
2022-09-16T02:09:50.420Z,20
2022-09-16T02:15:25.074Z,20
2022-09-16T02:21:00.335Z,20
2022-09-16T02:26:35.134Z,20.1
2022-09-16T02:32:31.881Z,20.1
2022-09-16T02:38:04.665Z,20.1
2022-09-16T02:43:40.254Z,20.1
2022-09-16T02:49:15.053Z,20.1
2022-09-16T02:54:49.912Z,20
2022-09-16T03:00:25.728Z,20
2022-09-16T03:06:00.546Z,20
2022-09-16T03:11:35.392Z,20
2022-09-16T03:17:10.258Z,19.9
2022-09-16T03:22:45.897Z,19.9
2022-09-16T03:28:21.869Z,19.8
2022-09-16T03:34:18.339Z,19.8
2022-09-16T03:39:51.995Z,19.7
2022-09-16T03:45:29.134Z,19.7
2022-09-16T03:51:05.252Z,19.7
2022-09-16T03:56:40.017Z,19.6
2022-09-16T04:02:14.846Z,19.6
2022-09-16T04:07:51.428Z,19.5
2022-09-16T04:13:26.579Z,19.5
2022-09-16T04:19:01.411Z,19.4
2022-09-16T04:24:37.167Z,19.4
2022-09-16T04:30:11.756Z,19.4
2022-09-16T04:35:46.844Z,19.4
2022-09-16T04:41:22.724Z,19.4
2022-09-16T04:46:57.455Z,19.4
2022-09-16T04:52:32.718Z,19.4
2022-09-16T04:58:07.362Z,19.4
2022-09-16T05:03:43.223Z,19.4
2022-09-16T05:09:19.661Z,19.5
2022-09-16T05:14:54.509Z,19.5
2022-09-16T05:20:29.409Z,19.5
2022-09-16T05:26:06.464Z,19.5
2022-09-16T05:32:03.434Z,19.6
2022-09-16T05:37:35.979Z,19.6
2022-09-16T05:43:12.881Z,19.6
2022-09-16T05:48:47.744Z,19.6
2022-09-16T05:54:22.917Z,19.1
2022-09-16T05:59:59.910Z,18.8
2022-09-16T06:05:34.735Z,18.8
2022-09-16T06:11:09.644Z,18.8
2022-09-16T06:16:46.207Z,18.8
2022-09-16T06:22:21.416Z,18.9
2022-09-16T06:27:57.666Z,18.8
2022-09-16T06:33:55.893Z,18.9
2022-09-16T06:39:28.951Z,18.9
2022-09-16T06:45:04.762Z,18.9
2022-09-16T06:50:42.546Z,18.9
2022-09-16T06:56:18.700Z,18.9
2022-09-16T07:01:53.637Z,19
2022-09-16T07:07:30.794Z,19
2022-09-16T07:13:06.044Z,19.2
2022-09-16T07:18:41.077Z,19.4
2022-09-16T07:24:18.269Z,19.4
2022-09-16T07:30:00.273Z,19.5
2022-09-16T07:35:44.030Z,19.5
2022-09-16T07:41:20.356Z,19.5
2022-09-16T07:46:55.424Z,19.6
2022-09-16T07:52:30.755Z,19.5
2022-09-16T07:58:07.513Z,19.6
2022-09-16T08:03:43.144Z,19.6
2022-09-16T08:09:38.082Z,19.7
2022-09-16T08:15:31.041Z,19.8
2022-09-16T08:21:06.120Z,19.8
2022-09-16T08:26:41.973Z,19.7
2022-09-16T08:32:19.408Z,19.7
2022-09-16T08:37:55.342Z,19.7
2022-09-16T08:43:30.226Z,19.8
2022-09-16T08:49:06.221Z,19.8
2022-09-16T08:54:41.961Z,19.8
2022-09-16T09:00:18.106Z,19.8
2022-09-16T09:05:54.774Z,19.9
2022-09-16T09:11:30.425Z,19.9
2022-09-16T09:17:11.630Z,19.9
2022-09-16T09:22:48.625Z,20
2022-09-16T09:28:23.373Z,20
2022-09-16T09:34:20.180Z,20
2022-09-16T09:39:56.516Z,20
2022-09-16T09:45:31.984Z,20
2022-09-16T09:51:07.453Z,20.1
2022-09-16T09:56:45.777Z,20.1
2022-09-16T10:02:21.730Z,20.1
2022-09-16T10:07:58.064Z,20.2
2022-09-16T10:13:35.284Z,20.3
2022-09-16T10:19:10.066Z,20.4
2022-09-16T10:24:44.976Z,20.5
2022-09-16T10:35:58.673Z,20.6
2022-09-16T10:41:33.523Z,20.6
2022-09-16T10:47:10.422Z,20.7
2022-09-16T10:52:46.268Z,20.8
2022-09-16T10:58:22.353Z,20.9
2022-09-16T11:04:01.786Z,20.9
2022-09-16T11:09:39.577Z,20.8
2022-09-16T11:15:15.518Z,20.9
2022-09-16T11:20:53.026Z,21
2022-09-16T11:26:28.987Z,21
2022-09-16T11:32:25.708Z,21.1
2022-09-16T11:38:01.830Z,21.1
2022-09-16T11:43:37.957Z,21.2
2022-09-16T11:49:13.056Z,21.3
2022-09-16T11:54:51.157Z,21.4
2022-09-16T12:00:27.232Z,21.4
2022-09-16T12:06:02.376Z,21.5
2022-09-16T12:11:39.295Z,21.5
2022-09-16T12:17:14.134Z,21.6
2022-09-16T12:22:49.530Z,21.6
2022-09-16T12:28:26.277Z,21.8
2022-09-16T12:34:23.074Z,22.2
2022-09-16T12:39:57.203Z,22.5
2022-09-16T12:45:34.634Z,22.8
2022-09-16T12:51:09.627Z,23
2022-09-16T12:56:45.717Z,23.3
2022-09-16T13:02:23.830Z,23.6
2022-09-16T13:08:01.369Z,23.9
2022-09-16T13:13:36.446Z,24.1
2022-09-16T13:19:14.048Z,24.5
2022-09-16T13:24:49.034Z,24.7
2022-09-16T13:30:25.194Z,25
2022-09-16T13:36:03.419Z,25.2
2022-09-16T13:41:38.293Z,25.2
2022-09-16T13:47:13.308Z,25.3
2022-09-16T13:52:49.772Z,24.9
2022-09-16T13:58:24.958Z,25
2022-09-16T14:04:00.143Z,25.5
2022-09-16T14:09:35.963Z,25.7
2022-09-16T14:15:11.841Z,25.9
2022-09-16T14:20:47.741Z,26.1
2022-09-16T14:26:23.806Z,26.1
2022-09-16T14:32:20.976Z,25.9
2022-09-16T14:37:53.882Z,25.6
2022-09-16T14:43:30.118Z,25.6
2022-09-16T14:49:05.020Z,25.7
2022-09-16T14:54:40.113Z,26.1
2022-09-16T15:00:17.146Z,26.3
2022-09-16T15:05:52.100Z,26.1
2022-09-16T15:11:46.870Z,25.9
2022-09-16T15:17:26.189Z,25.7
2022-09-16T15:23:01.075Z,25.5
2022-09-16T15:28:37.063Z,25.3
2022-09-16T15:34:34.838Z,25.2
2022-09-16T15:40:07.748Z,25
2022-09-16T15:45:43.558Z,24.8
2022-09-16T15:51:20.277Z,24.7
2022-09-16T15:57:04.195Z,24.5
2022-09-16T16:02:39.221Z,24.3
2022-09-16T16:08:16.372Z,24.1
2022-09-16T16:13:52.481Z,24
2022-09-16T16:19:27.419Z,23.8
2022-09-16T16:25:02.984Z,23.7
2022-09-16T16:30:38.273Z,23.5
2022-09-16T16:36:13.377Z,23.4
2022-09-16T16:41:48.941Z,23.2
2022-09-16T16:47:23.794Z,23.1
2022-09-16T16:52:58.763Z,23
2022-09-16T16:58:34.867Z,22.9
2022-09-16T17:04:09.846Z,22.8
2022-09-16T17:09:44.779Z,22.6
2022-09-16T17:15:22.013Z,22.5
2022-09-16T17:20:56.774Z,22.4
2022-09-16T17:26:33.351Z,22.3
2022-09-16T17:32:31.444Z,22.2
2022-09-16T17:38:06.902Z,22.1
2022-09-16T17:43:42.017Z,21.9
2022-09-16T17:49:19.522Z,21.8
2022-09-16T17:54:54.292Z,21.7
2022-09-16T18:00:29.266Z,21.6
2022-09-16T18:06:06.232Z,21.5
2022-09-16T18:11:41.130Z,21.5
2022-09-16T18:17:16.170Z,21.4
2022-09-16T18:22:52.193Z,21.3
2022-09-16T18:28:27.485Z,21.2
2022-09-16T18:34:03.432Z,21.1
2022-09-16T18:39:39.346Z,21.1
2022-09-16T18:45:14.092Z,20.9
2022-09-16T18:50:49.223Z,20.8
2022-09-16T18:56:25.478Z,20.8
2022-09-16T19:02:01.695Z,20.7
2022-09-16T19:07:39.482Z,20.6
2022-09-16T19:13:15.579Z,20.5
2022-09-16T19:18:50.306Z,20.4
2022-09-16T19:24:25.402Z,20.3
2022-09-16T19:30:01.286Z,20.3
2022-09-16T19:35:36.202Z,20.2
2022-09-16T19:41:11.313Z,20.1
2022-09-16T19:46:47.191Z,20.1
2022-09-16T19:52:21.922Z,20
2022-09-16T19:57:56.975Z,20
2022-09-16T20:03:32.949Z,20
2022-09-16T20:09:07.665Z,20
2022-09-16T20:14:42.437Z,20
2022-09-16T20:20:18.297Z,20
2022-09-16T20:25:56.963Z,19.9
2022-09-16T20:31:31.901Z,19.9
2022-09-16T20:37:09.146Z,19.8
2022-09-16T20:42:44.294Z,19.8
2022-09-16T20:48:19.175Z,19.8
2022-09-16T20:53:54.925Z,19.7
2022-09-16T20:59:29.694Z,19.6
2022-09-16T21:05:05.466Z,19.5
2022-09-16T21:10:42.706Z,19.4
2022-09-16T21:16:17.576Z,19.3
2022-09-16T21:21:54.559Z,19.3
2022-09-16T21:27:31.386Z,19.2
2022-09-16T21:33:28.166Z,19.1
2022-09-16T21:39:01.105Z,19
2022-09-16T21:44:37.135Z,19
2022-09-16T21:50:12.190Z,18.9
2022-09-16T21:55:47.225Z,18.8
2022-09-16T22:01:24.053Z,18.7
2022-09-16T22:07:00.360Z,18.7
2022-09-16T22:12:35.659Z,18.6
2022-09-16T22:18:11.717Z,18.5
2022-09-16T22:23:46.727Z,18.5
2022-09-16T22:29:21.752Z,18.4
2022-09-16T22:34:57.415Z,18.4
2022-09-16T22:40:32.125Z,18.3
2022-09-16T22:46:08.108Z,18.3
2022-09-16T22:51:45.423Z,18.2
2022-09-16T22:57:20.225Z,18.2
2022-09-16T23:02:55.240Z,18.1
2022-09-16T23:08:32.055Z,18.1
2022-09-16T23:14:06.730Z,18
2022-09-16T23:19:41.886Z,18
2022-09-16T23:25:19.024Z,17.9
2022-09-16T23:30:54.879Z,17.9
2022-09-16T23:36:30.433Z,17.9
2022-09-16T23:42:06.234Z,17.8
2022-09-16T23:47:40.864Z,17.8
2022-09-16T23:53:15.755Z,17.7
2022-09-16T23:58:51.558Z,17.7
